Time;durP1;ratioP1;P1;durP2;ratioP2;P2;SDS_P1;SDS_P2;PMS_P1;PMS_P2;Temp;Humidity;BMP_temperature;BMP_pressure;BME280_temperature;BME280_humidity;BME280_pressure;Samples;Min_cycle;Max_cycle;Signal;HPM_P1;HPM_P2
2022/01/08 00:00:30;;;;;;;29.95;13.80;;;;;;;-3.93;66.83;101172.77;1777446;80;21852;-71
2022/01/08 00:02:56;;;;;;;27.95;13.15;;;;;;;-4.00;67.01;101188.30;1760711;80;21105;-72
2022/01/08 00:05:23;;;;;;;34.08;15.45;;;;;;;-4.04;67.16;101185.75;1764219;80;21036;-73
2022/01/08 00:07:50;;;;;;;35.55;16.90;;;;;;;-4.07;67.26;101185.75;1781740;80;21004;-73
2022/01/08 00:10:17;;;;;;;42.13;19.82;;;;;;;-4.09;67.30;101192.65;1765057;80;21022;-73
2022/01/08 00:12:43;;;;;;;43.50;21.05;;;;;;;-4.08;67.28;101189.63;1790020;80;21685;-76
2022/01/08 00:15:11;;;;;;;43.83;16.75;;;;;;;-4.05;67.23;101191.78;1780354;80;20967;-76
2022/01/08 00:17:38;;;;;;;41.42;17.62;;;;;;;-4.07;67.12;101202.52;1791958;79;20990;-75
2022/01/08 00:20:05;;;;;;;36.65;17.57;;;;;;;-4.12;67.15;101206.87;1747887;81;20991;-73
2022/01/08 00:22:31;;;;;;;39.83;17.57;;;;;;;-4.18;67.14;101200.44;1742504;82;20965;-74
2022/01/08 00:24:58;;;;;;;38.53;17.87;;;;;;;-4.22;67.22;101207.78;1750880;81;22206;-75
2022/01/08 00:27:24;;;;;;;44.70;21.00;;;;;;;-4.24;67.28;101204.37;1748442;80;21019;-72
2022/01/08 00:29:51;;;;;;;36.25;17.65;;;;;;;-4.22;67.41;101205.64;1764412;80;21062;-76
2022/01/08 00:32:18;;;;;;;35.70;16.95;;;;;;;-4.25;67.50;101198.75;1740143;82;20967;-76
2022/01/08 00:34:44;;;;;;;35.50;16.67;;;;;;;-4.26;67.70;101200.91;1761594;80;21059;-76
2022/01/08 00:37:11;;;;;;;31.68;15.03;;;;;;;-4.27;67.83;101201.78;1782221;80;22220;-75
2022/01/08 00:39:37;;;;;;;28.92;13.68;;;;;;;-4.29;67.83;101194.49;1727460;81;21042;-75
2022/01/08 00:42:04;;;;;;;31.60;13.88;;;;;;;-4.34;67.88;101190.66;1747191;81;21320;-76
2022/01/08 00:44:30;;;;;;;26.80;12.90;;;;;;;-4.35;67.92;101188.92;1750241;81;21419;-76
2022/01/08 00:46:56;;;;;;;25.17;13.13;;;;;;;-4.35;67.92;101187.63;1778890;80;21442;-76
2022/01/08 00:49:25;;;;;;;29.55;14.63;;;;;;;-4.34;67.88;101184.22;1752723;81;22420;-75
2022/01/08 00:51:51;;;;;;;26.37;13.55;;;;;;;-4.34;67.91;101188.09;1759739;80;21036;-76
2022/01/08 00:54:18;;;;;;;29.92;13.93;;;;;;;-4.34;67.93;101183.36;1727410;81;20936;-75
2022/01/08 00:56:44;;;;;;;31.05;15.63;;;;;;;-4.38;67.97;101185.08;1749194;80;21063;-76
2022/01/08 00:59:11;;;;;;;34.25;16.23;;;;;;;-4.39;67.92;101179.94;1787457;80;21315;-76
2022/01/08 01:01:37;;;;;;;34.70;17.05;;;;;;;-4.42;67.96;101178.23;1743147;80;21843;-77
2022/01/08 01:04:04;;;;;;;33.15;15.63;;;;;;;-4.44;68.08;101176.51;1779401;80;20976;-76
2022/01/08 01:06:30;;;;;;;38.80;17.73;;;;;;;-4.46;68.13;101176.95;1719284;81;21034;-77
2022/01/08 01:08:57;;;;;;;30.30;15.20;;;;;;;-4.47;68.17;101177.83;1750878;80;20993;-76
2022/01/08 01:11:24;;;;;;;31.35;16.00;;;;;;;-4.46;68.14;101180.83;1770936;80;21529;-76
2022/01/08 01:13:51;;;;;;;35.55;17.40;;;;;;;-4.44;68.19;101184.24;1749430;80;22846;-77
2022/01/08 01:16:20;;;;;;;31.82;15.40;;;;;;;-4.44;68.14;101182.55;1755632;80;20953;-76
2022/01/08 01:18:46;;;;;;;33.58;15.70;;;;;;;-4.44;68.14;101181.27;1759178;79;21040;-76
2022/01/08 01:21:13;;;;;;;32.00;16.48;;;;;;;-4.45;68.19;101182.09;1765348;79;21061;-77
2022/01/08 01:23:42;;;;;;;43.85;20.55;;;;;;;-4.45;68.04;101187.69;1770660;79;20963;-76
2022/01/08 01:26:13;;;;;;;142.00;65.42;;;;;;;-4.50;67.98;101188.16;1750841;81;22202;-76
2022/01/08 01:28:46;;;;;;;133.43;61.75;;;;;;;-4.55;68.09;101186.02;1750403;81;20980;-76
2022/01/08 01:42:08;;;;;;;23.40;12.15;;;;;;;-4.60;68.57;101168.02;1764707;80;21424;-77
2022/01/08 01:47:06;;;;;;;22.50;11.60;;;;;;;-4.63;68.57;101172.77;1779300;78;20945;-78
2022/01/08 01:49:35;;;;;;;20.55;10.68;;;;;;;-4.64;68.53;101163.72;1785747;79;20998;-78
2022/01/08 01:52:04;;;;;;;20.70;10.50;;;;;;;-4.68;68.61;101155.16;1718721;81;21800;-81
2022/01/08 01:54:31;;;;;;;20.80;10.85;;;;;;;-4.68;68.65;101159.45;1702486;84;21433;-77
2022/01/08 01:56:59;;;;;;;24.12;12.50;;;;;;;-4.68;68.61;101160.31;1715258;81;20964;-76
2022/01/08 01:59:28;;;;;;;75.10;35.55;;;;;;;-4.70;68.61;101154.31;1767856;81;21002;-76
2022/01/08 02:01:54;;;;;;;36.73;18.45;;;;;;;-4.70;68.65;101156.89;1780792;79;21011;-77
2022/01/08 02:04:21;;;;;;;27.80;14.53;;;;;;;-4.68;68.75;101153.86;1782914;79;21853;-76
2022/01/08 02:06:48;;;;;;;23.80;13.10;;;;;;;-4.67;68.74;101150.42;1773209;79;20990;-77
2022/01/08 02:09:14;;;;;;;21.77;10.98;;;;;;;-4.68;68.84;101164.61;1751035;79;21007;-77
2022/01/08 02:11:59;;;;;;;23.02;11.88;;;;;;;-4.71;68.87;101156.47;1736414;81;21441;-76
2022/01/08 02:14:27;;;;;;;22.65;11.33;;;;;;;-4.73;68.91;101150.47;1756160;81;21050;-76
2022/01/08 02:16:54;;;;;;;25.95;12.53;;;;;;;-4.72;68.78;101161.20;1747020;81;21812;-75
2022/01/08 02:19:21;;;;;;;28.80;13.40;;;;;;;-4.75;68.66;101162.91;1778458;80;21441;-76
2022/01/08 02:21:51;;;;;;;32.80;13.98;;;;;;;-4.81;68.63;101170.26;1777407;80;20992;-75
2022/01/08 02:24:17;;;;;;;34.55;16.05;;;;;;;-4.87;68.61;101167.69;1762079;80;21035;-75
2022/01/08 02:26:43;;;;;;;39.42;17.17;;;;;;;-4.95;68.66;101168.14;1751185;80;20998;-76
2022/01/08 02:29:14;;;;;;;49.90;21.80;;;;;;;-5.02;68.80;101168.62;1760303;81;21765;-75
2022/01/08 02:31:41;;;;;;;50.43;21.62;;;;;;;-5.06;68.87;101163.03;1756061;81;21053;-76
2022/01/08 02:34:07;;;;;;;41.00;20.00;;;;;;;-5.06;69.10;101156.59;1762773;80;20972;-77
2022/01/08 02:36:34;;;;;;;41.40;18.70;;;;;;;-5.07;69.27;101163.89;1789271;80;20991;-76
2022/01/08 02:39:01;;;;;;;41.13;18.48;;;;;;;-5.10;69.26;101165.20;1726771;82;20959;-76
2022/01/08 02:41:27;;;;;;;42.75;20.43;;;;;;;-5.09;69.22;101166.05;1719607;82;22256;-76
2022/01/08 02:43:54;;;;;;;44.25;21.42;;;;;;;-5.11;69.21;101169.92;1753314;80;20979;-76
2022/01/08 02:46:21;;;;;;;29.40;16.07;;;;;;;-5.12;69.30;101172.05;1763531;80;21087;-77
2022/01/08 02:48:47;;;;;;;30.62;15.32;;;;;;;-5.07;69.66;101169.48;1748295;80;20991;-76
2022/01/08 02:51:14;;;;;;;32.80;15.35;;;;;;;-5.03;69.86;101168.59;1750623;81;21438;-77
2022/01/08 02:53:40;;;;;;;28.00;15.40;;;;;;;-4.97;70.02;101165.58;1723167;81;22189;-76
2022/01/08 02:56:06;;;;;;;34.05;17.10;;;;;;;-4.93;70.09;101169.84;1789410;80;21473;-76
2022/01/08 02:58:33;;;;;;;32.63;16.37;;;;;;;-4.95;69.97;101169.00;1753077;80;21423;-76
2022/01/08 03:01:00;;;;;;;36.50;17.90;;;;;;;-4.94;69.98;101169.86;1728036;80;21044;-77
2022/01/08 03:03:26;;;;;;;38.95;19.40;;;;;;;-4.95;70.07;101162.98;1748015;81;21011;-78
2022/01/08 03:05:52;;;;;;;36.38;18.57;;;;;;;-4.94;70.12;101165.98;1752111;81;21809;-75
2022/01/08 03:08:19;;;;;;;32.98;17.67;;;;;;;-4.97;70.05;101159.57;1732150;80;20939;-72
2022/01/08 03:10:46;;;;;;;35.52;17.05;;;;;;;-5.00;69.97;101157.87;1723875;82;21489;-73
2022/01/08 03:13:12;;;;;;;35.08;17.98;;;;;;;-5.00;70.01;101151.86;1725651;81;21044;-73
2022/01/08 03:15:41;;;;;;;35.92;17.45;;;;;;;-4.99;70.02;101163.45;1789327;80;20979;-73
2022/01/08 03:18:07;;;;;;;38.50;19.37;;;;;;;-4.98;69.97;101160.44;1762175;80;21704;-73
2022/01/08 03:20:43;;;;;;;37.13;19.55;;;;;;;-4.99;69.93;101162.59;1762831;80;20995;-73
2022/01/08 03:23:05;;;;;;;33.53;18.77;;;;;;;-5.01;69.98;101154.87;1780213;80;21087;-73
2022/01/08 03:25:32;;;;;;;33.40;16.12;;;;;;;-5.02;70.06;101154.84;1773393;80;21486;-74
2022/01/08 03:27:59;;;;;;;33.83;18.65;;;;;;;-5.02;70.13;101158.71;1755749;81;21054;-73
2022/01/08 03:30:28;;;;;;;37.38;18.32;;;;;;;-5.03;70.19;101162.16;1762720;80;21805;-74
2022/01/08 03:32:54;;;;;;;28.52;15.15;;;;;;;-5.03;70.25;101154.42;1760280;80;21019;-74
2022/01/08 03:35:21;;;;;;;30.45;15.98;;;;;;;-5.01;70.29;101158.73;1763379;80;20964;-73
2022/01/08 03:37:48;;;;;;;33.80;16.82;;;;;;;-4.99;70.26;101161.30;1734002;81;20956;-73
2022/01/08 03:40:14;;;;;;;20.82;12.55;;;;;;;-5.00;70.25;101157.02;1762577;80;21022;-73
2022/01/08 03:42:41;;;;;;;25.70;14.05;;;;;;;-5.00;70.28;101158.30;1752828;80;21833;-73
2022/01/08 03:45:08;;;;;;;20.68;11.80;;;;;;;-5.01;70.31;101160.45;1770140;80;21000;-74
2022/01/08 03:48:04;;;;;;;19.25;11.45;;;;;;;-5.03;70.24;101154.42;1780977;80;21064;-73
2022/01/08 03:50:10;;;;;;;21.55;12.15;;;;;;;-5.04;70.17;101163.02;1769903;79;20995;-74
2022/01/08 03:52:36;;;;;;;20.70;12.40;;;;;;;-5.06;70.07;101170.75;1747278;80;21031;-74
2022/01/08 03:55:03;;;;;;;22.90;12.75;;;;;;;-5.09;69.97;101176.36;1787911;78;22191;-73
2022/01/08 03:57:31;;;;;;;25.80;14.30;;;;;;;-5.15;69.96;101170.78;1784871;79;21066;-73
2022/01/08 03:59:58;;;;;;;27.95;14.87;;;;;;;-5.19;69.97;101172.52;1746451;81;21499;-74
2022/01/08 04:02:24;;;;;;;23.30;12.65;;;;;;;-5.21;70.04;101171.67;1762431;80;21020;-74
2022/01/08 04:04:50;;;;;;;21.50;12.55;;;;;;;-5.24;70.20;101166.94;1776892;79;21006;-73
2022/01/08 04:07:17;;;;;;;22.95;12.95;;;;;;;-5.26;70.35;101170.80;1785051;79;22160;-74
2022/01/08 04:09:45;;;;;;;21.17;12.78;;;;;;;-5.27;70.44;101168.23;1782209;79;21053;-74
2022/01/08 04:12:16;;;;;;;22.00;12.58;;;;;;;-5.28;70.45;101169.10;1718492;83;20974;-74
2022/01/08 04:14:54;;;;;;;19.48;12.18;;;;;;;-5.27;70.47;101174.24;1774471;80;20968;-73
2022/01/08 04:17:13;;;;;;;23.05;11.93;;;;;;;-5.24;70.48;101180.66;1765060;80;21447;-74
2022/01/08 04:19:39;;;;;;;20.40;10.68;;;;;;;-5.23;70.48;101176.37;1740502;80;21831;-74
2022/01/08 04:22:12;;;;;;;19.60;10.75;;;;;;;-5.25;70.56;101172.52;1777323;80;21113;-75
2022/01/08 04:24:41;;;;;;;16.70;10.78;;;;;;;-5.24;70.68;101174.66;1736813;81;20987;-73
2022/01/08 04:27:08;;;;;;;18.45;10.78;;;;;;;-5.24;70.77;101170.37;1732142;81;21004;-73
2022/01/08 04:29:34;;;;;;;19.57;10.48;;;;;;;-5.21;70.76;101169.52;1758570;80;21004;-73
2022/01/08 04:32:02;;;;;;;20.68;11.03;;;;;;;-5.20;70.76;101170.80;1756704;80;22737;-73
2022/01/08 04:34:29;;;;;;;18.25;10.85;;;;;;;-5.17;70.70;101175.52;1773214;80;20916;-74
2022/01/08 04:36:55;;;;;;;18.62;10.82;;;;;;;-5.17;70.63;101180.23;1757115;80;21080;-74
2022/01/08 04:39:22;;;;;;;17.17;10.23;;;;;;;-5.16;70.71;101179.80;1767054;80;20963;-73
2022/01/08 04:41:48;;;;;;;19.40;10.38;;;;;;;-5.15;70.73;101177.22;1745823;80;20937;-72
2022/01/08 04:44:14;;;;;;;15.60;10.48;;;;;;;-5.14;70.72;101176.78;1779657;80;22172;-73
2022/01/08 04:46:41;;;;;;;19.23;10.05;;;;;;;-5.14;70.69;101178.92;1761934;80;20992;-74
2022/01/08 04:49:08;;;;;;;13.83;8.35;;;;;;;-5.12;70.75;101182.78;1766520;80;20963;-73
2022/01/08 04:51:35;;;;;;;14.20;7.53;;;;;;;-5.13;70.83;101181.07;1758616;80;20956;-73
2022/01/08 04:54:01;;;;;;;12.78;7.15;;;;;;;-5.12;70.90;101187.50;1766953;80;21110;-73
2022/01/08 04:56:28;;;;;;;14.15;7.72;;;;;;;-5.12;70.99;101185.36;1739994;80;21823;-72
2022/01/08 04:58:54;;;;;;;11.12;6.95;;;;;;;-5.13;71.12;101191.38;1762239;79;21054;-74
2022/01/08 05:01:20;;;;;;;14.33;8.20;;;;;;;-5.12;71.17;101191.80;1773505;80;20937;-73
2022/01/08 05:03:47;;;;;;;14.18;7.75;;;;;;;-5.11;71.20;101197.41;1770639;80;21059;-73
2022/01/08 05:06:13;;;;;;;15.75;8.50;;;;;;;-5.10;71.28;101192.25;1743282;81;21075;-73
2022/01/08 05:08:40;;;;;;;17.45;8.25;;;;;;;-5.08;71.37;101190.95;1756843;80;21798;-73
2022/01/08 05:11:06;;;;;;;11.55;6.97;;;;;;;-5.06;71.39;101194.38;1755475;80;21037;-73
2022/01/08 05:13:32;;;;;;;12.05;7.15;;;;;;;-5.02;71.41;101193.48;1756447;80;21427;-73
2022/01/08 05:16:00;;;;;;;11.63;6.70;;;;;;;-4.99;71.46;101196.08;1752347;81;20960;-73
2022/01/08 05:18:29;;;;;;;13.85;6.67;;;;;;;-4.98;71.46;101193.92;1752209;80;21084;-73
2022/01/08 05:21:10;;;;;;;10.50;6.40;;;;;;;-4.96;71.48;101199.48;1782091;79;22136;-73
2022/01/08 05:23:26;;;;;;;10.55;5.75;;;;;;;-4.95;71.50;101206.36;1756972;81;21000;-73
2022/01/08 05:25:53;;;;;;;10.93;6.37;;;;;;;-4.95;71.47;101210.66;1758027;79;20963;-73
2022/01/08 05:28:20;;;;;;;11.90;6.70;;;;;;;-4.96;71.50;101214.09;1791618;79;21015;-73
2022/01/08 05:30:46;;;;;;;10.43;5.92;;;;;;;-4.98;71.57;101212.81;1728295;83;21078;-73
2022/01/08 05:33:12;;;;;;;9.33;5.50;;;;;;;-4.96;71.59;101208.94;1746639;80;21433;-74
2022/01/08 05:35:39;;;;;;;9.83;6.55;;;;;;;-4.93;71.62;101211.06;1766233;79;20904;-73
2022/01/08 05:38:06;;;;;;;11.03;6.22;;;;;;;-4.92;71.69;101210.66;1759142;81;21428;-73
2022/01/08 05:40:33;;;;;;;11.30;6.25;;;;;;;-4.89;71.71;101217.09;1742725;81;21026;-73
2022/01/08 05:42:59;;;;;;;11.70;7.17;;;;;;;-4.85;71.66;101212.77;1761662;81;21010;-72
2022/01/08 05:45:26;;;;;;;14.50;7.28;;;;;;;-4.82;71.65;101220.52;1757395;80;22186;-73
2022/01/08 05:47:52;;;;;;;11.80;7.30;;;;;;;-4.82;71.59;101218.80;1775524;79;20967;-73
2022/01/08 05:50:18;;;;;;;10.90;6.78;;;;;;;-4.82;71.55;101215.36;1776104;79;20953;-72
2022/01/08 05:52:45;;;;;;;12.23;7.50;;;;;;;-4.82;71.52;101225.67;1772059;79;21509;-73
2022/01/08 05:55:12;;;;;;;9.88;6.45;;;;;;;-4.83;71.39;101220.06;1765509;79;21109;-73
2022/01/08 05:57:38;;;;;;;24.63;13.08;;;;;;;-4.84;71.28;101226.08;1766574;79;22194;-73
2022/01/08 06:00:08;;;;;;;101.60;40.88;;;;;;;-4.84;71.27;101232.52;1777233;79;21109;-73
2022/01/08 06:02:37;;;;;;;84.72;32.05;;;;;;;-4.85;71.26;101230.37;1786040;79;20996;-73
2022/01/08 06:05:06;;;;;;;86.17;33.90;;;;;;;-4.85;71.27;101242.41;1765102;79;21042;-73
2022/01/08 06:07:34;;;;;;;48.15;21.35;;;;;;;-4.86;71.33;101245.41;1741034;80;21022;-73
2022/01/08 06:10:00;;;;;;;27.55;13.93;;;;;;;-4.87;71.35;101244.13;1791348;79;22204;-73
2022/01/08 06:12:27;;;;;;;21.45;11.43;;;;;;;-4.87;71.44;101242.84;1749211;81;21075;-73
2022/01/08 06:14:53;;;;;;;17.77;10.68;;;;;;;-4.88;71.45;101239.41;1743425;79;21055;-73
2022/01/08 06:17:20;;;;;;;22.62;11.12;;;;;;;-4.86;71.53;101244.13;1785110;79;21252;-73
2022/01/08 06:19:47;;;;;;;21.25;11.57;;;;;;;-4.85;71.58;101247.13;1762202;80;21050;-73
2022/01/08 06:22:13;;;;;;;20.30;11.48;;;;;;;-4.81;71.59;101246.70;1792732;80;21711;-73
2022/01/08 06:24:41;;;;;;;20.75;12.10;;;;;;;-4.82;71.59;101248.43;1766151;80;20920;-73
2022/01/08 06:27:08;;;;;;;31.55;15.85;;;;;;;-4.80;71.59;101247.13;1763559;80;20933;-73
2022/01/08 06:29:37;;;;;;;27.52;14.47;;;;;;;-4.80;71.63;101242.83;1792797;80;20931;-73
2022/01/08 06:32:04;;;;;;;31.37;15.53;;;;;;;-4.78;71.61;101238.95;1784024;79;21089;-73
2022/01/08 06:34:32;;;;;;;36.35;16.55;;;;;;;-4.75;71.60;101242.80;1769783;80;21882;-74
2022/01/08 06:36:58;;;;;;;37.05;16.87;;;;;;;-4.74;71.56;101238.07;1772564;79;20968;-72
2022/01/08 06:39:25;;;;;;;34.90;16.90;;;;;;;-4.72;71.60;101234.66;1746636;80;21510;-73
2022/01/08 06:41:51;;;;;;;28.95;13.65;;;;;;;-4.70;71.62;101232.92;1757370;81;21656;-74
2022/01/08 06:44:18;;;;;;;24.82;12.10;;;;;;;-4.68;71.69;101236.34;1783469;80;21414;-73
2022/01/08 06:46:45;;;;;;;22.17;11.28;;;;;;;-4.66;71.77;101235.05;1777834;80;21805;-74
2022/01/08 06:49:12;;;;;;;20.60;11.97;;;;;;;-4.64;71.78;101236.75;1738376;80;20937;-73
2022/01/08 06:51:39;;;;;;;18.95;10.90;;;;;;;-4.59;71.83;101232.88;1764333;81;20938;-74
2022/01/08 06:54:05;;;;;;;18.80;10.68;;;;;;;-4.56;71.87;101241.88;1713973;81;21449;-74
2022/01/08 06:56:32;;;;;;;19.20;10.43;;;;;;;-4.49;71.96;101238.42;1770194;80;20963;-74
2022/01/08 06:58:59;;;;;;;15.45;8.40;;;;;;;-4.42;71.96;101237.55;1764911;80;22174;-73
2022/01/08 07:01:26;;;;;;;15.98;9.13;;;;;;;-4.33;72.07;101244.39;1776833;80;20996;-74
2022/01/08 07:03:55;;;;;;;17.52;7.47;;;;;;;-4.23;72.15;101246.48;1764215;81;20979;-74
2022/01/08 07:06:22;;;;;;;9.88;6.08;;;;;;;-4.15;72.24;101237.84;1736237;81;20976;-70
2022/01/08 07:08:49;;;;;;;9.73;5.47;;;;;;;-4.04;72.34;101246.38;1742442;80;20992;-73
2022/01/08 07:11:16;;;;;;;9.03;5.00;;;;;;;-3.94;72.33;101242.46;1778582;80;21748;-69
2022/01/08 07:13:43;;;;;;;9.30;5.17;;;;;;;-3.84;72.39;101243.68;1733825;82;20947;-69
2022/01/08 07:16:09;;;;;;;8.30;4.70;;;;;;;-3.74;72.10;101243.19;1724957;82;20992;-70
2022/01/08 07:18:35;;;;;;;6.55;4.40;;;;;;;-3.67;71.84;101238.38;1723915;82;21004;-71
2022/01/08 07:21:04;;;;;;;6.80;4.30;;;;;;;-3.57;71.56;101234.00;1760484;80;21031;-70
2022/01/08 07:23:31;;;;;;;22.70;11.60;;;;;;;-3.49;71.30;101229.64;1756717;81;22176;-72
2022/01/08 07:25:57;;;;;;;21.30;10.30;;;;;;;-3.40;71.19;101228.27;1741556;81;21031;-73
2022/01/08 07:28:24;;;;;;;16.05;9.53;;;;;;;-3.30;70.87;101232.92;1758680;80;21062;-70
2022/01/08 07:30:50;;;;;;;14.20;7.28;;;;;;;-3.23;70.64;101230.72;1752121;81;21055;-71
2022/01/08 07:33:16;;;;;;;11.00;4.70;;;;;;;-3.14;70.36;101230.63;1735906;81;21063;-72
2022/01/08 07:35:43;;;;;;;9.08;4.83;;;;;;;-3.09;69.80;101226.25;1749655;80;22218;-71
2022/01/08 07:38:09;;;;;;;7.70;4.70;;;;;;;-3.07;69.13;101227.13;1762447;80;21051;-72
2022/01/08 07:40:36;;;;;;;10.70;6.72;;;;;;;-3.04;68.89;101227.08;1790333;80;21007;-73
2022/01/08 07:43:04;;;;;;;8.70;5.20;;;;;;;-2.99;68.80;101230.90;1768531;80;21396;-73
2022/01/08 07:45:31;;;;;;;9.90;5.12;;;;;;;-2.94;68.51;101231.28;1781203;80;20939;-69
2022/01/08 07:47:58;;;;;;;10.50;5.05;;;;;;;-2.89;68.32;101226.94;1755096;80;22838;-68
2022/01/08 07:50:24;;;;;;;10.03;4.75;;;;;;;-2.83;68.11;101232.90;1770069;80;21544;-69
2022/01/08 07:52:51;;;;;;;11.12;5.80;;;;;;;-2.77;67.72;101225.95;1751521;81;21075;-68
2022/01/08 07:55:17;;;;;;;10.00;6.20;;;;;;;-2.69;67.33;101226.72;1744961;81;21021;-69
2022/01/08 07:57:43;;;;;;;9.13;5.10;;;;;;;-2.61;66.92;101229.19;1743078;81;21020;-68
2022/01/08 08:00:11;;;;;;;12.30;6.92;;;;;;;-2.53;66.72;101225.23;1754605;81;22123;-69
2022/01/08 08:02:40;;;;;;;12.80;7.28;;;;;;;-2.46;66.54;101229.46;1756038;80;21000;-68
2022/01/08 08:05:07;;;;;;;16.70;8.35;;;;;;;-2.40;66.18;101217.31;1755943;81;20999;-68
2022/01/08 08:07:37;;;;;;;14.93;7.72;;;;;;;-2.29;66.06;101218.91;1726720;82;21031;-68
2022/01/08 08:10:10;;;;;;;17.40;10.15;;;;;;;-2.20;65.86;101220.08;1730636;80;21047;-67
2022/01/08 08:12:39;;;;;;;17.12;10.10;;;;;;;-2.12;65.77;101214.37;1758761;81;21796;-69
2022/01/08 08:15:09;;;;;;;15.48;8.90;;;;;;;-2.02;65.87;101212.92;1764531;80;21055;-69
2022/01/08 08:17:35;;;;;;;21.65;10.82;;;;;;;-1.91;65.67;101215.34;1727430;83;21000;-70
2022/01/08 08:20:03;;;;;;;17.20;9.18;;;;;;;-1.83;65.35;101212.20;1757957;80;21011;-72
2022/01/08 08:22:31;;;;;;;17.20;9.33;;;;;;;-1.78;65.14;101207.80;1739258;80;21094;-71
2022/01/08 08:24:57;;;;;;;17.15;9.70;;;;;;;-1.71;64.89;101204.69;1767531;80;22216;-70
2022/01/08 08:27:24;;;;;;;16.07;8.65;;;;;;;-1.65;64.80;101201.12;1769714;80;21106;-72
2022/01/08 08:29:50;;;;;;;12.03;6.40;;;;;;;-1.55;64.48;101198.80;1752767;80;21028;-71
2022/01/08 08:32:17;;;;;;;13.58;6.80;;;;;;;-1.45;63.81;101192.58;1758575;80;21074;-71
2022/01/08 08:34:43;;;;;;;16.40;7.70;;;;;;;-1.35;63.07;101192.87;1710260;82;21095;-70
2022/01/08 08:37:11;;;;;;;10.28;5.40;;;;;;;-1.26;63.18;101186.20;1748319;81;22236;-70
2022/01/08 08:39:37;;;;;;;9.95;4.60;;;;;;;-1.14;62.77;101185.59;1752283;80;20991;-71
2022/01/08 08:42:04;;;;;;;10.08;4.08;;;;;;;-1.05;61.51;101189.31;1765662;80;21028;-70
2022/01/08 08:44:31;;;;;;;7.45;3.83;;;;;;;-0.99;61.08;101191.33;1785199;80;20986;-71
2022/01/08 08:46:57;;;;;;;7.87;3.55;;;;;;;-0.91;60.07;101186.00;1765810;80;20948;-70
2022/01/08 08:49:24;;;;;;;8.18;4.28;;;;;;;-0.83;59.37;101181.97;1761795;80;22163;-71
2022/01/08 08:51:50;;;;;;;7.08;3.45;;;;;;;-0.79;58.51;101179.71;1778871;80;20924;-69
2022/01/08 08:54:17;;;;;;;8.00;3.70;;;;;;;-0.76;57.81;101175.78;1778863;78;20997;-71
2022/01/08 08:56:43;;;;;;;11.55;5.00;;;;;;;-0.72;57.82;101166.59;1732604;81;20972;-71
2022/01/08 08:59:11;;;;;;;9.23;4.90;;;;;;;-0.66;57.44;101163.03;1731266;80;21063;-70
2022/01/08 09:01:38;;;;;;;9.60;5.28;;;;;;;-0.60;57.47;101168.93;1747616;80;21847;-70
2022/01/08 09:04:04;;;;;;;8.33;4.03;;;;;;;-0.56;57.15;101157.21;1768323;80;21043;-70
2022/01/08 09:06:32;;;;;;;5.30;3.42;;;;;;;-0.51;56.70;101166.59;1762233;80;20979;-69
2022/01/08 09:08:59;;;;;;;6.17;3.52;;;;;;;-0.47;56.93;101156.58;1748198;82;39549;-69
2022/01/08 09:11:27;;;;;;;6.65;3.75;;;;;;;-0.44;56.92;101156.50;1745893;81;20991;-72
2022/01/08 09:13:53;;;;;;;81.28;39.25;;;;;;;-0.41;56.75;101155.56;1769748;80;21741;-70
2022/01/08 09:16:20;;;;;;;31.23;16.05;;;;;;;-0.39;56.36;101154.64;1755598;80;21293;-71
2022/01/08 09:18:47;;;;;;;9.78;5.28;;;;;;;-0.36;56.94;101156.34;1775435;80;21018;-71
2022/01/08 09:21:13;;;;;;;16.32;6.28;;;;;;;-0.29;56.88;101150.09;1760751;80;20999;-69
2022/01/08 09:23:40;;;;;;;11.33;6.37;;;;;;;-0.23;57.03;101149.13;1762690;81;21280;-72
2022/01/08 09:26:07;;;;;;;11.97;5.80;;;;;;;-0.17;57.25;101143.36;1730756;81;22165;-71
2022/01/08 09:28:33;;;;;;;9.60;5.70;;;;;;;-0.08;57.59;101137.95;1744221;82;21517;-71
2022/01/08 09:31:01;;;;;;;13.28;6.35;;;;;;;0.05;58.00;101133.75;1759439;80;21438;-71
2022/01/08 09:33:31;;;;;;;10.10;5.83;;;;;;;0.17;57.42;101133.45;1756900;81;21497;-71
2022/01/08 09:35:59;;;;;;;9.23;5.95;;;;;;;0.21;56.90;101130.76;1731681;80;21544;-71
2022/01/08 09:38:29;;;;;;;10.88;5.75;;;;;;;0.29;56.86;101127.98;1739595;82;21750;-72
2022/01/08 09:40:57;;;;;;;11.55;5.90;;;;;;;0.40;56.72;101131.16;1748000;81;21051;-72
2022/01/08 09:43:23;;;;;;;11.18;5.87;;;;;;;0.48;55.74;101127.92;1737736;81;21329;-71
2022/01/08 09:45:50;;;;;;;8.33;4.65;;;;;;;0.55;55.63;101125.55;1729013;82;21001;-71
2022/01/08 09:48:16;;;;;;;11.53;4.80;;;;;;;0.64;54.71;101122.30;1734746;80;21086;-71
2022/01/08 09:50:43;;;;;;;11.43;6.55;;;;;;;0.64;52.48;101118.40;1786866;80;21855;-71
2022/01/08 09:53:11;;;;;;;15.20;4.55;;;;;;;0.62;51.86;101118.45;1742171;80;21028;-71
2022/01/08 09:55:38;;;;;;;8.70;5.28;;;;;;;0.64;51.35;101111.91;1763431;80;21043;-72
2022/01/08 09:58:04;;;;;;;9.48;5.83;;;;;;;0.60;51.10;101116.78;1783121;79;21069;-74
2022/01/08 10:00:35;;;;;;;11.43;6.15;;;;;;;0.60;51.42;101111.14;1774612;80;21091;-70
2022/01/08 10:03:20;;;;;;;10.20;6.53;;;;;;;0.60;50.87;101105.94;1745717;80;21800;-71
2022/01/08 10:05:50;;;;;;;14.98;7.58;;;;;;;0.63;50.73;101105.00;1752021;80;21447;-71
2022/01/08 10:08:24;;;;;;;25.32;15.60;;;;;;;0.67;51.15;101096.21;1779065;80;21049;-71
2022/01/08 10:10:58;;;;;;;24.07;14.98;;;;;;;0.73;50.85;101097.36;1716705;82;21042;-71
2022/01/08 10:13:31;;;;;;;26.50;16.95;;;;;;;0.74;50.50;101092.11;1732124;80;21056;-71
2022/01/08 10:18:45;;;;;;;26.57;14.28;;;;;;;0.81;49.69;101087.59;1732130;81;21077;-73
2022/01/08 10:21:21;;;;;;;24.45;13.88;;;;;;;0.89;50.58;101090.84;1725811;81;21489;-73
2022/01/08 10:23:54;;;;;;;25.65;12.07;;;;;;;0.99;50.45;101090.98;1758127;80;21541;-72
2022/01/08 10:26:24;;;;;;;21.77;12.00;;;;;;;1.09;50.37;101078.13;1744849;80;21002;-73
2022/01/08 10:28:53;;;;;;;18.60;11.73;;;;;;;1.18;49.74;101080.05;1737022;80;21899;-73
2022/01/08 10:31:30;;;;;;;23.50;14.10;;;;;;;1.19;49.39;101085.20;1748969;80;21052;-72
2022/01/08 10:34:29;;;;;;;22.93;12.98;;;;;;;1.17;49.30;101075.75;1759664;80;21548;-73
2022/01/08 10:37:04;;;;;;;19.48;11.53;;;;;;;1.13;48.88;101078.42;1729044;81;21016;-73
2022/01/08 10:39:38;;;;;;;20.20;12.35;;;;;;;1.12;48.97;101077.17;1733225;80;21046;-74
2022/01/08 10:42:14;;;;;;;18.95;11.88;;;;;;;1.08;49.12;101079.02;1727530;82;21881;-75
2022/01/08 10:44:43;;;;;;;23.12;14.25;;;;;;;1.10;49.33;101072.02;1723466;80;21450;-73
2022/01/08 10:47:16;;;;;;;21.27;12.25;;;;;;;1.20;49.48;101070.00;1711851;81;21007;-71
2022/01/08 10:50:00;;;;;;;21.65;12.65;;;;;;;1.30;49.36;101063.61;1757883;81;21083;-73
2022/01/08 10:52:26;;;;;;;18.50;10.43;;;;;;;1.40;49.33;101062.89;1747107;81;20898;-73
2022/01/08 10:55:00;;;;;;;16.32;9.93;;;;;;;1.46;48.71;101053.60;1738172;80;21804;-72
2022/01/08 10:57:36;;;;;;;21.42;11.68;;;;;;;1.42;48.40;101055.88;1749848;80;21012;-74
2022/01/08 11:00:11;;;;;;;16.85;9.93;;;;;;;1.28;47.85;101058.91;1725598;83;21079;-73
2022/01/08 11:02:39;;;;;;;19.37;10.23;;;;;;;1.19;48.38;101061.79;1726797;83;21004;-72
2022/01/08 11:05:07;;;;;;;18.17;11.65;;;;;;;1.18;48.49;101054.88;1762990;80;21015;-73
2022/01/08 11:07:36;;;;;;;18.50;10.68;;;;;;;1.25;48.89;101058.98;1764335;80;22201;-72
2022/01/08 11:10:16;;;;;;;19.52;12.43;;;;;;;1.34;48.90;101053.95;1785091;80;20944;-72
2022/01/08 11:12:42;;;;;;;25.08;16.50;;;;;;;1.44;49.19;101050.17;1718834;81;21137;-71
2022/01/08 11:17:54;;;;;;;12.23;7.28;;;;;;;1.70;48.22;101044.16;1719077;81;21371;-71
2022/01/08 11:20:30;;;;;;;11.93;7.25;;;;;;;1.73;47.96;101040.98;1731319;81;21829;-72
2022/01/08 11:23:00;;;;;;;12.13;7.60;;;;;;;1.67;48.06;101030.78;1723323;81;21018;-73
2022/01/08 11:25:34;;;;;;;14.47;8.10;;;;;;;1.67;48.35;101028.19;1762607;80;21362;-72
2022/01/08 11:28:10;;;;;;;15.48;8.28;;;;;;;1.69;48.35;101030.28;1756242;81;21028;-73
2022/01/08 11:30:43;;;;;;;14.15;8.28;;;;;;;1.66;48.01;101025.19;1747167;81;21084;-74
2022/01/08 11:35:45;;;;;;;13.60;7.80;;;;;;;1.61;48.32;101019.25;1726954;81;20991;-72
2022/01/08 11:38:16;;;;;;;15.63;9.10;;;;;;;1.64;48.48;101019.18;1758464;80;21419;-70